sensor_id;sensor_type;location;lat;lon;timestamp;P1;durP1;ratioP1;P2;durP2;ratioP2
39128;SDS011;24864;49.940;19.770;2023-02-28T00:00:42;31.08;;;14.32;;
39128;SDS011;24864;49.940;19.770;2023-02-28T00:03:16;37.97;;;16.25;;
39128;SDS011;24864;49.940;19.770;2023-02-28T00:05:45;32.03;;;15.20;;
39128;SDS011;24864;49.940;19.770;2023-02-28T00:08:13;34.95;;;16.00;;
39128;SDS011;24864;49.940;19.770;2023-02-28T00:10:41;31.77;;;15.38;;
39128;SDS011;24864;49.940;19.770;2023-02-28T00:13:10;31.48;;;14.88;;
39128;SDS011;24864;49.940;19.770;2023-02-28T00:15:39;35.50;;;15.95;;
39128;SDS011;24864;49.940;19.770;2023-02-28T00:18:08;39.60;;;17.17;;
39128;SDS011;24864;49.940;19.770;2023-02-28T00:20:38;32.50;;;16.48;;
39128;SDS011;24864;49.940;19.770;2023-02-28T00:23:06;36.50;;;17.02;;
39128;SDS011;24864;49.940;19.770;2023-02-28T00:25:35;36.20;;;17.38;;
39128;SDS011;24864;49.940;19.770;2023-02-28T00:28:03;36.83;;;17.20;;
39128;SDS011;24864;49.940;19.770;2023-02-28T00:30:33;39.05;;;17.65;;
39128;SDS011;24864;49.940;19.770;2023-02-28T00:33:01;30.08;;;15.50;;
39128;SDS011;24864;49.940;19.770;2023-02-28T00:35:29;40.42;;;16.80;;
39128;SDS011;24864;49.940;19.770;2023-02-28T00:37:58;36.28;;;15.77;;
39128;SDS011;24864;49.940;19.770;2023-02-28T00:40:26;32.60;;;16.55;;
39128;SDS011;24864;49.940;19.770;2023-02-28T00:42:54;38.13;;;15.93;;
39128;SDS011;24864;49.940;19.770;2023-02-28T00:45:22;27.92;;;14.07;;
39128;SDS011;24864;49.940;19.770;2023-02-28T00:47:52;31.25;;;15.60;;
39128;SDS011;24864;49.940;19.770;2023-02-28T00:50:20;31.42;;;15.32;;
39128;SDS011;24864;49.940;19.770;2023-02-28T00:52:49;38.92;;;15.32;;
39128;SDS011;24864;49.940;19.770;2023-02-28T00:55:17;36.08;;;15.00;;
39128;SDS011;24864;49.940;19.770;2023-02-28T00:57:45;32.65;;;15.55;;
39128;SDS011;24864;49.940;19.770;2023-02-28T01:00:13;33.97;;;14.23;;
39128;SDS011;24864;49.940;19.770;2023-02-28T01:02:42;39.90;;;14.63;;
39128;SDS011;24864;49.940;19.770;2023-02-28T01:05:11;34.72;;;15.27;;
39128;SDS011;24864;49.940;19.770;2023-02-28T01:07:40;30.83;;;13.55;;
39128;SDS011;24864;49.940;19.770;2023-02-28T01:10:08;26.20;;;13.38;;
39128;SDS011;24864;49.940;19.770;2023-02-28T01:12:38;25.23;;;11.57;;
39128;SDS011;24864;49.940;19.770;2023-02-28T01:15:06;31.45;;;13.57;;
39128;SDS011;24864;49.940;19.770;2023-02-28T01:17:37;24.55;;;11.80;;
39128;SDS011;24864;49.940;19.770;2023-02-28T01:20:05;27.73;;;12.73;;
39128;SDS011;24864;49.940;19.770;2023-02-28T01:22:35;26.27;;;12.23;;
39128;SDS011;24864;49.940;19.770;2023-02-28T01:25:04;25.85;;;11.55;;
39128;SDS011;24864;49.940;19.770;2023-02-28T01:27:33;24.85;;;12.43;;
39128;SDS011;24864;49.940;19.770;2023-02-28T01:30:02;31.00;;;12.43;;
39128;SDS011;24864;49.940;19.770;2023-02-28T01:32:30;24.20;;;11.65;;
39128;SDS011;24864;49.940;19.770;2023-02-28T01:34:58;29.52;;;12.80;;
39128;SDS011;24864;49.940;19.770;2023-02-28T01:37:27;24.75;;;11.50;;
39128;SDS011;24864;49.940;19.770;2023-02-28T01:39:56;24.63;;;11.88;;
39128;SDS011;24864;49.940;19.770;2023-02-28T01:42:24;24.88;;;11.23;;
39128;SDS011;24864;49.940;19.770;2023-02-28T01:47:46;29.48;;;11.50;;
39128;SDS011;24864;49.940;19.770;2023-02-28T01:50:17;26.10;;;11.23;;
39128;SDS011;24864;49.940;19.770;2023-02-28T01:52:46;29.50;;;11.32;;
39128;SDS011;24864;49.940;19.770;2023-02-28T01:55:18;21.67;;;11.27;;
39128;SDS011;24864;49.940;19.770;2023-02-28T01:57:48;21.20;;;11.00;;
39128;SDS011;24864;49.940;19.770;2023-02-28T02:00:20;25.42;;;11.50;;
39128;SDS011;24864;49.940;19.770;2023-02-28T02:02:50;27.20;;;11.82;;
39128;SDS011;24864;49.940;19.770;2023-02-28T02:05:21;24.73;;;11.98;;
39128;SDS011;24864;49.940;19.770;2023-02-28T02:07:51;27.92;;;12.15;;
39128;SDS011;24864;49.940;19.770;2023-02-28T02:10:24;26.17;;;11.52;;
39128;SDS011;24864;49.940;19.770;2023-02-28T02:13:07;22.08;;;11.48;;
39128;SDS011;24864;49.940;19.770;2023-02-28T02:15:40;24.35;;;11.73;;
39128;SDS011;24864;49.940;19.770;2023-02-28T02:18:13;25.58;;;12.30;;
39128;SDS011;24864;49.940;19.770;2023-02-28T02:20:51;24.67;;;12.00;;
39128;SDS011;24864;49.940;19.770;2023-02-28T02:32:15;30.38;;;11.95;;
39128;SDS011;24864;49.940;19.770;2023-02-28T02:34:57;27.85;;;12.13;;
39128;SDS011;24864;49.940;19.770;2023-02-28T02:37:32;27.55;;;13.10;;
39128;SDS011;24864;49.940;19.770;2023-02-28T02:40:07;27.27;;;12.60;;
39128;SDS011;24864;49.940;19.770;2023-02-28T02:42:40;25.05;;;13.10;;
39128;SDS011;24864;49.940;19.770;2023-02-28T02:45:13;34.92;;;13.55;;
39128;SDS011;24864;49.940;19.770;2023-02-28T02:47:43;25.55;;;12.85;;
39128;SDS011;24864;49.940;19.770;2023-02-28T02:50:14;26.48;;;12.95;;
39128;SDS011;24864;49.940;19.770;2023-02-28T02:52:47;27.15;;;12.73;;
39128;SDS011;24864;49.940;19.770;2023-02-28T02:55:18;27.05;;;12.43;;
39128;SDS011;24864;49.940;19.770;2023-02-28T02:57:49;30.20;;;12.73;;
39128;SDS011;24864;49.940;19.770;2023-02-28T03:00:20;29.10;;;12.20;;
39128;SDS011;24864;49.940;19.770;2023-02-28T03:02:51;32.58;;;11.98;;
39128;SDS011;24864;49.940;19.770;2023-02-28T03:05:23;25.08;;;12.85;;
39128;SDS011;24864;49.940;19.770;2023-02-28T03:07:53;25.83;;;13.13;;
39128;SDS011;24864;49.940;19.770;2023-02-28T03:10:26;37.50;;;19.55;;
39128;SDS011;24864;49.940;19.770;2023-02-28T03:13:03;32.97;;;15.80;;
39128;SDS011;24864;49.940;19.770;2023-02-28T03:15:47;37.35;;;14.88;;
39128;SDS011;24864;49.940;19.770;2023-02-28T03:18:24;27.88;;;13.65;;
39128;SDS011;24864;49.940;19.770;2023-02-28T03:20:56;27.42;;;13.02;;
39128;SDS011;24864;49.940;19.770;2023-02-28T03:23:30;30.52;;;14.73;;
39128;SDS011;24864;49.940;19.770;2023-02-28T03:26:04;34.80;;;15.02;;
39128;SDS011;24864;49.940;19.770;2023-02-28T03:28:36;32.30;;;15.40;;
39128;SDS011;24864;49.940;19.770;2023-02-28T03:31:10;32.47;;;15.05;;
39128;SDS011;24864;49.940;19.770;2023-02-28T03:33:42;33.95;;;15.43;;
39128;SDS011;24864;49.940;19.770;2023-02-28T03:36:23;36.78;;;15.52;;
39128;SDS011;24864;49.940;19.770;2023-02-28T03:38:54;32.63;;;14.35;;
39128;SDS011;24864;49.940;19.770;2023-02-28T03:41:25;29.27;;;14.45;;
39128;SDS011;24864;49.940;19.770;2023-02-28T03:44:00;39.58;;;15.50;;
39128;SDS011;24864;49.940;19.770;2023-02-28T03:46:33;27.25;;;14.98;;
39128;SDS011;24864;49.940;19.770;2023-02-28T03:49:03;26.30;;;13.60;;
39128;SDS011;24864;49.940;19.770;2023-02-28T03:51:37;29.02;;;13.98;;
39128;SDS011;24864;49.940;19.770;2023-02-28T03:54:07;28.63;;;13.52;;
39128;SDS011;24864;49.940;19.770;2023-02-28T03:56:38;23.63;;;12.70;;
39128;SDS011;24864;49.940;19.770;2023-02-28T03:59:10;30.35;;;13.80;;
39128;SDS011;24864;49.940;19.770;2023-02-28T04:01:41;33.22;;;14.50;;
39128;SDS011;24864;49.940;19.770;2023-02-28T04:04:11;33.00;;;15.00;;
39128;SDS011;24864;49.940;19.770;2023-02-28T04:06:41;32.03;;;15.65;;
39128;SDS011;24864;49.940;19.770;2023-02-28T04:09:11;35.47;;;16.15;;
39128;SDS011;24864;49.940;19.770;2023-02-28T04:11:40;36.03;;;16.85;;
39128;SDS011;24864;49.940;19.770;2023-02-28T04:14:10;28.67;;;14.13;;
39128;SDS011;24864;49.940;19.770;2023-02-28T04:16:39;37.97;;;16.50;;
39128;SDS011;24864;49.940;19.770;2023-02-28T04:19:09;40.25;;;18.17;;
39128;SDS011;24864;49.940;19.770;2023-02-28T04:21:39;56.58;;;22.73;;
39128;SDS011;24864;49.940;19.770;2023-02-28T04:24:10;62.17;;;23.15;;
39128;SDS011;24864;49.940;19.770;2023-02-28T04:26:41;44.72;;;18.08;;
39128;SDS011;24864;49.940;19.770;2023-02-28T04:29:10;43.15;;;17.33;;
39128;SDS011;24864;49.940;19.770;2023-02-28T04:31:40;39.00;;;15.40;;
39128;SDS011;24864;49.940;19.770;2023-02-28T04:34:08;36.17;;;15.27;;
39128;SDS011;24864;49.940;19.770;2023-02-28T04:36:36;35.92;;;16.17;;
39128;SDS011;24864;49.940;19.770;2023-02-28T04:39:06;31.85;;;14.10;;
39128;SDS011;24864;49.940;19.770;2023-02-28T04:41:34;44.13;;;16.00;;
39128;SDS011;24864;49.940;19.770;2023-02-28T04:44:02;39.03;;;17.27;;
39128;SDS011;24864;49.940;19.770;2023-02-28T04:46:31;37.55;;;17.10;;
39128;SDS011;24864;49.940;19.770;2023-02-28T04:48:59;34.08;;;16.00;;
39128;SDS011;24864;49.940;19.770;2023-02-28T04:51:27;36.10;;;16.33;;
39128;SDS011;24864;49.940;19.770;2023-02-28T04:53:56;43.55;;;16.83;;
39128;SDS011;24864;49.940;19.770;2023-02-28T04:56:25;44.72;;;16.90;;
39128;SDS011;24864;49.940;19.770;2023-02-28T04:58:53;46.38;;;17.00;;
39128;SDS011;24864;49.940;19.770;2023-02-28T05:01:23;47.88;;;17.83;;
39128;SDS011;24864;49.940;19.770;2023-02-28T05:03:52;42.55;;;17.50;;
39128;SDS011;24864;49.940;19.770;2023-02-28T05:06:22;46.40;;;18.52;;
39128;SDS011;24864;49.940;19.770;2023-02-28T05:08:51;43.63;;;17.92;;
39128;SDS011;24864;49.940;19.770;2023-02-28T05:11:20;40.25;;;18.00;;
39128;SDS011;24864;49.940;19.770;2023-02-28T05:13:51;50.47;;;19.20;;
39128;SDS011;24864;49.940;19.770;2023-02-28T05:16:20;45.22;;;17.92;;
39128;SDS011;24864;49.940;19.770;2023-02-28T05:18:48;40.85;;;16.80;;
39128;SDS011;24864;49.940;19.770;2023-02-28T05:21:21;35.78;;;16.23;;
39128;SDS011;24864;49.940;19.770;2023-02-28T05:23:53;41.78;;;16.63;;
39128;SDS011;24864;49.940;19.770;2023-02-28T05:26:21;44.00;;;18.70;;
39128;SDS011;24864;49.940;19.770;2023-02-28T05:28:51;44.25;;;17.23;;
39128;SDS011;24864;49.940;19.770;2023-02-28T05:31:20;36.15;;;17.40;;
39128;SDS011;24864;49.940;19.770;2023-02-28T05:33:48;44.40;;;17.92;;
39128;SDS011;24864;49.940;19.770;2023-02-28T05:36:16;35.67;;;17.73;;
39128;SDS011;24864;49.940;19.770;2023-02-28T05:38:45;32.78;;;16.13;;
39128;SDS011;24864;49.940;19.770;2023-02-28T05:41:14;40.60;;;17.98;;
39128;SDS011;24864;49.940;19.770;2023-02-28T05:43:43;39.28;;;17.88;;
39128;SDS011;24864;49.940;19.770;2023-02-28T05:46:13;46.17;;;19.17;;
39128;SDS011;24864;49.940;19.770;2023-02-28T05:48:42;47.80;;;18.98;;
39128;SDS011;24864;49.940;19.770;2023-02-28T05:51:10;86.15;;;27.75;;
39128;SDS011;24864;49.940;19.770;2023-02-28T05:53:38;68.57;;;24.20;;
39128;SDS011;24864;49.940;19.770;2023-02-28T05:56:06;52.92;;;22.25;;
39128;SDS011;24864;49.940;19.770;2023-02-28T05:58:35;57.33;;;22.00;;
39128;SDS011;24864;49.940;19.770;2023-02-28T06:03:49;51.63;;;20.10;;
39128;SDS011;24864;49.940;19.770;2023-02-28T06:06:17;47.80;;;18.50;;
39128;SDS011;24864;49.940;19.770;2023-02-28T06:08:45;56.88;;;21.30;;
39128;SDS011;24864;49.940;19.770;2023-02-28T06:11:13;45.33;;;19.52;;
39128;SDS011;24864;49.940;19.770;2023-02-28T06:13:41;54.17;;;20.08;;
39128;SDS011;24864;49.940;19.770;2023-02-28T06:16:10;39.85;;;19.42;;
39128;SDS011;24864;49.940;19.770;2023-02-28T06:18:40;51.80;;;20.42;;
39128;SDS011;24864;49.940;19.770;2023-02-28T06:21:08;43.60;;;19.02;;
39128;SDS011;24864;49.940;19.770;2023-02-28T06:23:36;38.60;;;19.13;;
39128;SDS011;24864;49.940;19.770;2023-02-28T06:26:04;41.90;;;19.33;;
39128;SDS011;24864;49.940;19.770;2023-02-28T06:28:32;36.40;;;19.67;;
39128;SDS011;24864;49.940;19.770;2023-02-28T06:31:06;54.17;;;25.13;;
39128;SDS011;24864;49.940;19.770;2023-02-28T06:33:35;48.80;;;22.92;;
39128;SDS011;24864;49.940;19.770;2023-02-28T06:36:05;54.85;;;22.73;;
39128;SDS011;24864;49.940;19.770;2023-02-28T06:38:34;52.72;;;24.45;;
39128;SDS011;24864;49.940;19.770;2023-02-28T06:41:02;65.72;;;28.08;;
39128;SDS011;24864;49.940;19.770;2023-02-28T06:43:32;71.53;;;31.15;;
39128;SDS011;24864;49.940;19.770;2023-02-28T06:46:03;58.15;;;25.23;;
39128;SDS011;24864;49.940;19.770;2023-02-28T06:48:32;50.50;;;23.88;;
39128;SDS011;24864;49.940;19.770;2023-02-28T06:51:02;57.88;;;24.35;;
39128;SDS011;24864;49.940;19.770;2023-02-28T06:53:33;55.25;;;25.15;;
39128;SDS011;24864;49.940;19.770;2023-02-28T06:56:03;64.93;;;29.20;;
39128;SDS011;24864;49.940;19.770;2023-02-28T06:58:33;70.97;;;26.88;;
39128;SDS011;24864;49.940;19.770;2023-02-28T07:01:02;56.85;;;24.65;;
39128;SDS011;24864;49.940;19.770;2023-02-28T07:03:30;50.00;;;23.35;;
39128;SDS011;24864;49.940;19.770;2023-02-28T07:06:00;49.47;;;23.38;;
39128;SDS011;24864;49.940;19.770;2023-02-28T07:08:30;52.47;;;22.90;;
39128;SDS011;24864;49.940;19.770;2023-02-28T07:10:59;47.70;;;21.60;;
39128;SDS011;24864;49.940;19.770;2023-02-28T07:13:27;52.90;;;21.05;;
39128;SDS011;24864;49.940;19.770;2023-02-28T07:15:56;54.17;;;21.75;;
39128;SDS011;24864;49.940;19.770;2023-02-28T07:18:26;47.45;;;21.05;;
39128;SDS011;24864;49.940;19.770;2023-02-28T07:20:54;43.85;;;20.27;;
39128;SDS011;24864;49.940;19.770;2023-02-28T07:23:23;44.35;;;22.15;;
39128;SDS011;24864;49.940;19.770;2023-02-28T07:25:53;49.70;;;21.95;;
39128;SDS011;24864;49.940;19.770;2023-02-28T07:28:21;47.03;;;22.20;;
39128;SDS011;24864;49.940;19.770;2023-02-28T07:30:49;49.67;;;24.38;;
39128;SDS011;24864;49.940;19.770;2023-02-28T07:33:17;67.55;;;28.48;;
39128;SDS011;24864;49.940;19.770;2023-02-28T07:35:46;46.38;;;21.58;;
39128;SDS011;24864;49.940;19.770;2023-02-28T07:38:14;62.40;;;27.83;;
39128;SDS011;24864;49.940;19.770;2023-02-28T07:40:43;53.95;;;24.60;;
39128;SDS011;24864;49.940;19.770;2023-02-28T07:43:13;53.92;;;24.00;;
39128;SDS011;24864;49.940;19.770;2023-02-28T07:45:41;54.40;;;24.98;;
39128;SDS011;24864;49.940;19.770;2023-02-28T07:48:09;49.75;;;24.25;;
39128;SDS011;24864;49.940;19.770;2023-02-28T07:50:37;48.90;;;23.77;;
39128;SDS011;24864;49.940;19.770;2023-02-28T07:53:06;59.35;;;24.92;;
39128;SDS011;24864;49.940;19.770;2023-02-28T07:55:34;51.33;;;24.25;;
39128;SDS011;24864;49.940;19.770;2023-02-28T07:58:02;58.55;;;25.60;;
39128;SDS011;24864;49.940;19.770;2023-02-28T08:00:32;59.72;;;26.02;;
39128;SDS011;24864;49.940;19.770;2023-02-28T08:03:00;58.38;;;27.75;;
39128;SDS011;24864;49.940;19.770;2023-02-28T08:05:29;58.00;;;25.88;;
39128;SDS011;24864;49.940;19.770;2023-02-28T08:07:57;52.60;;;24.88;;
39128;SDS011;24864;49.940;19.770;2023-02-28T08:10:26;54.35;;;25.42;;
39128;SDS011;24864;49.940;19.770;2023-02-28T08:12:53;55.75;;;24.55;;
39128;SDS011;24864;49.940;19.770;2023-02-28T08:15:22;61.28;;;24.67;;
39128;SDS011;24864;49.940;19.770;2023-02-28T08:17:51;47.55;;;23.42;;
39128;SDS011;24864;49.940;19.770;2023-02-28T08:20:22;59.03;;;29.35;;
39128;SDS011;24864;49.940;19.770;2023-02-28T08:22:51;32.88;;;17.08;;
39128;SDS011;24864;49.940;19.770;2023-02-28T08:25:19;45.53;;;18.73;;
39128;SDS011;24864;49.940;19.770;2023-02-28T08:27:47;39.53;;;19.42;;
39128;SDS011;24864;49.940;19.770;2023-02-28T08:30:18;37.72;;;18.02;;
39128;SDS011;24864;49.940;19.770;2023-02-28T08:32:46;25.35;;;12.15;;
39128;SDS011;24864;49.940;19.770;2023-02-28T08:35:16;18.88;;;10.02;;
39128;SDS011;24864;49.940;19.770;2023-02-28T08:37:44;16.17;;;8.40;;
39128;SDS011;24864;49.940;19.770;2023-02-28T08:40:12;12.35;;;7.95;;
39128;SDS011;24864;49.940;19.770;2023-02-28T08:42:44;18.13;;;6.68;;
39128;SDS011;24864;49.940;19.770;2023-02-28T08:45:12;13.93;;;6.53;;
39128;SDS011;24864;49.940;19.770;2023-02-28T08:47:41;10.75;;;6.30;;
39128;SDS011;24864;49.940;19.770;2023-02-28T08:50:10;13.02;;;6.20;;
39128;SDS011;24864;49.940;19.770;2023-02-28T08:52:43;11.47;;;5.93;;
39128;SDS011;24864;49.940;19.770;2023-02-28T08:55:11;16.63;;;7.50;;
39128;SDS011;24864;49.940;19.770;2023-02-28T08:57:39;15.52;;;7.20;;
39128;SDS011;24864;49.940;19.770;2023-02-28T09:00:08;10.70;;;6.80;;
39128;SDS011;24864;49.940;19.770;2023-02-28T09:02:39;14.70;;;7.97;;
39128;SDS011;24864;49.940;19.770;2023-02-28T09:05:10;14.82;;;9.07;;
39128;SDS011;24864;49.940;19.770;2023-02-28T09:07:38;18.30;;;8.15;;
39128;SDS011;24864;49.940;19.770;2023-02-28T09:10:08;12.27;;;7.55;;
39128;SDS011;24864;49.940;19.770;2023-02-28T09:12:37;10.38;;;7.22;;
39128;SDS011;24864;49.940;19.770;2023-02-28T09:15:06;13.18;;;7.22;;
39128;SDS011;24864;49.940;19.770;2023-02-28T09:17:35;13.32;;;7.75;;
39128;SDS011;24864;49.940;19.770;2023-02-28T09:20:03;15.68;;;8.02;;
39128;SDS011;24864;49.940;19.770;2023-02-28T09:22:32;50.38;;;20.88;;
39128;SDS011;24864;49.940;19.770;2023-02-28T09:25:01;16.10;;;9.10;;
39128;SDS011;24864;49.940;19.770;2023-02-28T09:27:30;18.83;;;8.55;;
39128;SDS011;24864;49.940;19.770;2023-02-28T09:29:58;13.93;;;8.25;;
39128;SDS011;24864;49.940;19.770;2023-02-28T09:32:26;17.52;;;9.90;;
39128;SDS011;24864;49.940;19.770;2023-02-28T09:34:55;15.57;;;8.68;;
39128;SDS011;24864;49.940;19.770;2023-02-28T09:37:23;22.98;;;11.63;;
39128;SDS011;24864;49.940;19.770;2023-02-28T09:39:53;24.48;;;11.10;;
39128;SDS011;24864;49.940;19.770;2023-02-28T09:42:30;15.40;;;8.50;;
39128;SDS011;24864;49.940;19.770;2023-02-28T09:45:02;17.70;;;9.18;;
39128;SDS011;24864;49.940;19.770;2023-02-28T09:47:34;14.50;;;8.30;;
39128;SDS011;24864;49.940;19.770;2023-02-28T09:50:06;19.90;;;9.32;;
39128;SDS011;24864;49.940;19.770;2023-02-28T09:52:42;65.75;;;26.23;;
39128;SDS011;24864;49.940;19.770;2023-02-28T09:55:18;53.65;;;24.45;;
39128;SDS011;24864;49.940;19.770;2023-02-28T09:57:48;31.98;;;15.32;;
39128;SDS011;24864;49.940;19.770;2023-02-28T10:00:19;14.85;;;8.70;;
39128;SDS011;24864;49.940;19.770;2023-02-28T10:03:00;13.80;;;9.02;;
39128;SDS011;24864;49.940;19.770;2023-02-28T10:05:41;16.65;;;9.15;;
39128;SDS011;24864;49.940;19.770;2023-02-28T10:08:12;13.88;;;8.45;;
39128;SDS011;24864;49.940;19.770;2023-02-28T10:10:42;11.75;;;8.15;;
39128;SDS011;24864;49.940;19.770;2023-02-28T10:13:19;14.27;;;9.15;;
39128;SDS011;24864;49.940;19.770;2023-02-28T10:15:51;15.55;;;9.00;;
39128;SDS011;24864;49.940;19.770;2023-02-28T10:18:23;16.13;;;8.60;;
39128;SDS011;24864;49.940;19.770;2023-02-28T10:20:53;18.02;;;10.40;;
39128;SDS011;24864;49.940;19.770;2023-02-28T10:23:23;13.25;;;8.38;;
39128;SDS011;24864;49.940;19.770;2023-02-28T10:25:55;11.77;;;8.30;;
39128;SDS011;24864;49.940;19.770;2023-02-28T10:28:28;15.40;;;8.75;;
39128;SDS011;24864;49.940;19.770;2023-02-28T10:30:58;22.02;;;12.18;;
39128;SDS011;24864;49.940;19.770;2023-02-28T10:33:28;17.77;;;9.60;;
39128;SDS011;24864;49.940;19.770;2023-02-28T10:35:58;19.20;;;10.45;;
39128;SDS011;24864;49.940;19.770;2023-02-28T10:38:28;13.60;;;8.80;;
39128;SDS011;24864;49.940;19.770;2023-02-28T10:41:06;14.00;;;9.30;;
39128;SDS011;24864;49.940;19.770;2023-02-28T10:43:36;13.88;;;9.60;;
39128;SDS011;24864;49.940;19.770;2023-02-28T10:46:09;15.02;;;9.43;;
39128;SDS011;24864;49.940;19.770;2023-02-28T10:48:42;14.77;;;9.02;;
39128;SDS011;24864;49.940;19.770;2023-02-28T10:51:12;17.65;;;10.98;;
39128;SDS011;24864;49.940;19.770;2023-02-28T10:53:46;14.88;;;9.85;;
39128;SDS011;24864;49.940;19.770;2023-02-28T10:56:27;14.88;;;9.70;;
39128;SDS011;24864;49.940;19.770;2023-02-28T10:58:58;13.48;;;9.23;;
39128;SDS011;24864;49.940;19.770;2023-02-28T11:01:35;15.00;;;9.60;;
39128;SDS011;24864;49.940;19.770;2023-02-28T11:04:16;12.65;;;8.18;;
39128;SDS011;24864;49.940;19.770;2023-02-28T11:06:45;14.52;;;9.23;;
39128;SDS011;24864;49.940;19.770;2023-02-28T11:09:17;14.80;;;8.77;;
39128;SDS011;24864;49.940;19.770;2023-02-28T11:11:48;20.17;;;9.52;;
39128;SDS011;24864;49.940;19.770;2023-02-28T11:14:18;14.63;;;9.15;;
39128;SDS011;24864;49.940;19.770;2023-02-28T11:16:48;12.57;;;8.90;;
39128;SDS011;24864;49.940;19.770;2023-02-28T11:19:19;13.50;;;9.27;;
39128;SDS011;24864;49.940;19.770;2023-02-28T11:21:52;13.18;;;8.80;;
39128;SDS011;24864;49.940;19.770;2023-02-28T11:24:23;14.93;;;9.18;;
39128;SDS011;24864;49.940;19.770;2023-02-28T11:26:53;15.85;;;9.93;;
39128;SDS011;24864;49.940;19.770;2023-02-28T11:29:24;16.75;;;9.32;;
39128;SDS011;24864;49.940;19.770;2023-02-28T11:32:00;15.27;;;9.38;;
39128;SDS011;24864;49.940;19.770;2023-02-28T11:34:30;15.45;;;9.55;;
39128;SDS011;24864;49.940;19.770;2023-02-28T11:36:59;17.42;;;10.35;;
39128;SDS011;24864;49.940;19.770;2023-02-28T11:39:31;12.82;;;9.50;;
39128;SDS011;24864;49.940;19.770;2023-02-28T11:42:04;17.77;;;9.57;;
39128;SDS011;24864;49.940;19.770;2023-02-28T11:44:48;16.35;;;9.55;;
39128;SDS011;24864;49.940;19.770;2023-02-28T11:47:26;15.77;;;11.07;;
39128;SDS011;24864;49.940;19.770;2023-02-28T11:50:04;12.77;;;9.40;;
39128;SDS011;24864;49.940;19.770;2023-02-28T11:52:40;16.85;;;10.20;;
39128;SDS011;24864;49.940;19.770;2023-02-28T11:55:14;14.23;;;10.15;;
39128;SDS011;24864;49.940;19.770;2023-02-28T11:57:48;16.30;;;11.38;;
39128;SDS011;24864;49.940;19.770;2023-02-28T12:00:32;19.05;;;10.88;;
39128;SDS011;24864;49.940;19.770;2023-02-28T12:03:12;14.57;;;9.48;;
39128;SDS011;24864;49.940;19.770;2023-02-28T12:05:49;13.60;;;8.90;;
39128;SDS011;24864;49.940;19.770;2023-02-28T12:08:26;13.38;;;9.18;;
39128;SDS011;24864;49.940;19.770;2023-02-28T12:11:02;16.65;;;10.73;;
39128;SDS011;24864;49.940;19.770;2023-02-28T12:13:37;27.30;;;13.73;;
39128;SDS011;24864;49.940;19.770;2023-02-28T12:16:17;19.35;;;11.07;;
39128;SDS011;24864;49.940;19.770;2023-02-28T12:18:59;33.33;;;16.55;;
39128;SDS011;24864;49.940;19.770;2023-02-28T12:21:37;44.42;;;20.45;;
39128;SDS011;24864;49.940;19.770;2023-02-28T12:24:23;23.65;;;15.00;;
39128;SDS011;24864;49.940;19.770;2023-02-28T12:27:13;17.45;;;9.88;;
39128;SDS011;24864;49.940;19.770;2023-02-28T12:29:46;51.47;;;24.83;;
39128;SDS011;24864;49.940;19.770;2023-02-28T12:32:18;13.23;;;10.40;;
39128;SDS011;24864;49.940;19.770;2023-02-28T12:34:51;16.83;;;10.80;;
39128;SDS011;24864;49.940;19.770;2023-02-28T12:37:22;25.03;;;12.70;;
39128;SDS011;24864;49.940;19.770;2023-02-28T12:39:59;22.08;;;12.75;;
39128;SDS011;24864;49.940;19.770;2023-02-28T12:42:30;21.02;;;11.10;;
39128;SDS011;24864;49.940;19.770;2023-02-28T12:45:01;20.90;;;12.40;;
39128;SDS011;24864;49.940;19.770;2023-02-28T12:47:31;18.13;;;11.25;;
39128;SDS011;24864;49.940;19.770;2023-02-28T12:50:02;144.75;;;53.25;;
39128;SDS011;24864;49.940;19.770;2023-02-28T12:52:35;44.75;;;19.50;;
39128;SDS011;24864;49.940;19.770;2023-02-28T12:55:08;19.33;;;11.38;;
39128;SDS011;24864;49.940;19.770;2023-02-28T12:57:42;84.90;;;34.08;;
39128;SDS011;24864;49.940;19.770;2023-02-28T13:00:16;134.98;;;52.03;;
39128;SDS011;24864;49.940;19.770;2023-02-28T13:02:51;111.65;;;44.65;;
39128;SDS011;24864;49.940;19.770;2023-02-28T13:11:08;45.17;;;19.40;;
39128;SDS011;24864;49.940;19.770;2023-02-28T13:13:56;20.27;;;11.93;;
39128;SDS011;24864;49.940;19.770;2023-02-28T13:16:26;55.88;;;22.65;;
39128;SDS011;24864;49.940;19.770;2023-02-28T13:19:08;40.10;;;17.30;;
39128;SDS011;24864;49.940;19.770;2023-02-28T13:21:41;21.17;;;12.13;;
39128;SDS011;24864;49.940;19.770;2023-02-28T13:24:11;27.23;;;14.93;;
39128;SDS011;24864;49.940;19.770;2023-02-28T13:38:53;51.95;;;24.85;;
39128;SDS011;24864;49.940;19.770;2023-02-28T13:41:47;18.98;;;11.88;;
39128;SDS011;24864;49.940;19.770;2023-02-28T13:44:16;19.13;;;11.55;;
39128;SDS011;24864;49.940;19.770;2023-02-28T13:49:51;14.85;;;10.30;;
39128;SDS011;24864;49.940;19.770;2023-02-28T13:52:21;23.30;;;15.50;;
39128;SDS011;24864;49.940;19.770;2023-02-28T13:57:51;39.13;;;19.05;;
39128;SDS011;24864;49.940;19.770;2023-02-28T14:00:30;13.88;;;9.55;;
39128;SDS011;24864;49.940;19.770;2023-02-28T14:03:06;26.35;;;15.45;;
39128;SDS011;24864;49.940;19.770;2023-02-28T14:05:44;22.92;;;12.05;;
39128;SDS011;24864;49.940;19.770;2023-02-28T14:08:13;15.63;;;9.95;;
39128;SDS011;24864;49.940;19.770;2023-02-28T14:10:44;16.45;;;11.02;;
39128;SDS011;24864;49.940;19.770;2023-02-28T14:16:12;18.92;;;10.15;;
39128;SDS011;24864;49.940;19.770;2023-02-28T14:18:42;15.45;;;9.63;;
39128;SDS011;24864;49.940;19.770;2023-02-28T14:21:20;19.15;;;12.50;;
39128;SDS011;24864;49.940;19.770;2023-02-28T14:26:55;16.38;;;10.30;;
39128;SDS011;24864;49.940;19.770;2023-02-28T14:32:43;13.20;;;9.88;;
39128;SDS011;24864;49.940;19.770;2023-02-28T14:35:20;17.13;;;10.73;;
39128;SDS011;24864;49.940;19.770;2023-02-28T14:37:57;18.30;;;11.00;;
39128;SDS011;24864;49.940;19.770;2023-02-28T14:40:27;23.38;;;13.60;;
39128;SDS011;24864;49.940;19.770;2023-02-28T14:42:58;24.42;;;12.70;;
39128;SDS011;24864;49.940;19.770;2023-02-28T14:45:28;16.58;;;9.80;;
39128;SDS011;24864;49.940;19.770;2023-02-28T14:47:59;15.18;;;10.73;;
39128;SDS011;24864;49.940;19.770;2023-02-28T14:50:29;11.88;;;9.85;;
39128;SDS011;24864;49.940;19.770;2023-02-28T14:52:59;19.80;;;11.25;;
39128;SDS011;24864;49.940;19.770;2023-02-28T14:55:28;15.30;;;9.50;;
39128;SDS011;24864;49.940;19.770;2023-02-28T14:57:59;15.07;;;9.50;;
39128;SDS011;24864;49.940;19.770;2023-02-28T15:00:30;14.27;;;9.25;;
39128;SDS011;24864;49.940;19.770;2023-02-28T15:03:11;14.85;;;9.40;;
39128;SDS011;24864;49.940;19.770;2023-02-28T15:05:51;15.93;;;9.90;;
39128;SDS011;24864;49.940;19.770;2023-02-28T15:08:20;27.25;;;14.85;;
39128;SDS011;24864;49.940;19.770;2023-02-28T15:10:53;28.30;;;16.42;;
39128;SDS011;24864;49.940;19.770;2023-02-28T15:13:23;33.63;;;18.10;;
39128;SDS011;24864;49.940;19.770;2023-02-28T15:15:55;20.38;;;12.75;;
39128;SDS011;24864;49.940;19.770;2023-02-28T15:18:31;21.50;;;12.63;;
39128;SDS011;24864;49.940;19.770;2023-02-28T15:21:04;29.08;;;15.48;;